Time;durP1;ratioP1;P1;durP2;ratioP2;P2;SDS_P1;SDS_P2;PMS_P1;PMS_P2;Temp;Humidity;BMP_temperature;BMP_pressure;BME280_temperature;BME280_humidity;BME280_pressure;Samples;Min_cycle;Max_cycle;Signal;HPM_P1;HPM_P2
2021/12/18 00:01:58;;;;;;;8.37;4.50;;;7.20;99.90;;;;;;649300;219;26798;-78
2021/12/18 00:04:26;;;;;;;5.30;4.73;;;7.00;99.90;;;;;;649960;221;26579;-78
2021/12/18 00:06:55;;;;;;;5.60;5.07;;;7.20;99.90;;;;;;649516;221;26577;-78
2021/12/18 00:09:21;;;;;;;6.30;4.83;;;7.20;99.90;;;;;;649303;221;26865;-78
2021/12/18 00:11:48;;;;;;;6.30;5.30;;;7.50;99.90;;;;;;649145;217;26584;-78
2021/12/18 00:14:15;;;;;;;7.63;5.40;;;7.30;99.90;;;;;;648937;221;26828;-78
2021/12/18 00:16:43;;;;;;;5.93;5.20;;;7.10;99.90;;;;;;649119;222;26545;-78
2021/12/18 00:19:11;;;;;;;6.73;5.70;;;6.90;99.90;;;;;;648973;222;26566;-78
2021/12/18 00:21:38;;;;;;;7.40;5.00;;;6.90;99.90;;;;;;648771;221;26848;-78
2021/12/18 00:24:06;;;;;;;6.33;4.60;;;7.00;99.90;;;;;;648698;221;26752;-78
2021/12/18 00:26:33;;;;;;;8.13;5.33;;;7.20;99.90;;;;;;648698;222;26503;-78
2021/12/18 00:29:00;;;;;;;6.10;5.50;;;7.40;99.90;;;;;;648676;217;26543;-78
2021/12/18 00:31:27;;;;;;;5.40;4.90;;;7.10;99.90;;;;;;648683;222;27204;-78
2021/12/18 00:33:55;;;;;;;7.53;5.50;;;6.70;99.90;;;;;;648693;222;26567;-78
2021/12/18 00:36:23;;;;;;;7.17;4.90;;;6.60;99.90;;;;;;648708;222;26524;-79
2021/12/18 00:38:50;;;;;;;7.00;6.30;;;6.60;99.90;;;;;;648360;222;26790;-79
2021/12/18 00:42:00;;;;;;;5.87;5.27;;;6.30;99.90;;;;;;648373;222;26551;-78
2021/12/18 00:44:03;;;;;;;7.77;5.80;;;6.40;99.90;;;;;;645556;222;26600;-78
2021/12/18 00:46:31;;;;;;;5.93;5.33;;;6.40;99.90;;;;;;648714;222;26526;-79
2021/12/18 00:48:59;;;;;;;5.77;5.23;;;6.60;99.90;;;;;;648616;221;26550;-78
2021/12/18 00:51:27;;;;;;;5.93;4.87;;;6.80;99.90;;;;;;648760;222;26533;-78
2021/12/18 00:53:54;;;;;;;5.53;5.03;;;6.70;99.90;;;;;;648788;222;26756;-78
2021/12/18 00:56:22;;;;;;;6.90;5.37;;;6.70;99.90;;;;;;648801;222;26515;-78
2021/12/18 00:58:50;;;;;;;6.03;5.47;;;6.60;99.90;;;;;;648721;217;26755;-78
2021/12/18 01:01:18;;;;;;;6.03;4.50;;;6.50;99.90;;;;;;648695;221;26539;-78
2021/12/18 01:03:46;;;;;;;5.03;4.50;;;6.50;99.90;;;;;;648792;221;26776;-78
2021/12/18 01:06:12;;;;;;;4.40;4.07;;;6.70;99.90;;;;;;648675;221;26533;-79
2021/12/18 01:08:39;;;;;;;3.93;3.60;;;6.50;99.90;;;;;;648757;222;26508;-79
2021/12/18 01:11:27;;;;;;;4.73;4.00;;;6.70;99.90;;;;;;648773;222;26531;-79
2021/12/18 01:13:44;;;;;;;4.13;3.80;;;6.80;99.90;;;;;;648222;219;26803;-79
2021/12/18 01:16:12;;;;;;;5.00;3.70;;;6.90;99.90;;;;;;649572;221;26513;-78
2021/12/18 01:23:35;;;;;;;3.90;3.50;;;7.10;99.90;;;;;;649132;221;26885;-78
2021/12/18 01:26:03;;;;;;;5.57;4.20;;;6.60;99.90;;;;;;649064;222;26584;-79
2021/12/18 01:28:29;;;;;;;4.43;4.03;;;6.30;99.90;;;;;;648889;221;26583;-79
2021/12/18 01:30:57;;;;;;;4.47;3.90;;;6.10;99.90;;;;;;648924;222;26553;-80
2021/12/18 01:33:24;;;;;;;4.17;3.87;;;6.10;99.90;;;;;;648680;222;26535;-78
2021/12/18 01:35:53;;;;;;;4.83;3.53;;;5.90;99.90;;;;;;648699;222;26510;-79
2021/12/18 01:38:20;;;;;;;5.67;3.70;;;5.90;99.90;;;;;;648645;221;27186;-80
2021/12/18 01:40:45;;;;;;;3.80;3.50;;;6.20;99.90;;;;;;648658;221;26530;-78
2021/12/18 01:53:33;;;;;;;3.97;3.57;;;6.40;99.90;;;;;;648429;222;27168;-79
2021/12/18 01:56:01;;;;;;;3.50;3.23;;;6.40;99.90;;;;;;648502;221;26551;-78
2021/12/18 01:58:29;;;;;;;3.90;3.60;;;6.40;99.90;;;;;;648398;222;26570;-79
2021/12/18 02:00:56;;;;;;;4.00;3.70;;;6.40;99.90;;;;;;648367;221;26815;-78
2021/12/18 02:03:23;;;;;;;3.67;3.37;;;6.40;99.90;;;;;;648751;221;26563;-79
2021/12/18 02:05:51;;;;;;;3.83;3.53;;;6.50;99.90;;;;;;648782;222;26770;-79
2021/12/18 02:08:19;;;;;;;3.63;3.43;;;6.20;99.90;;;;;;648730;221;26535;-78
2021/12/18 02:10:52;;;;;;;3.67;3.37;;;6.20;99.90;;;;;;648762;222;26576;-79
2021/12/18 02:20:52;;;;;;;4.50;4.00;;;6.50;99.90;;;;;;648775;222;26562;-79
2021/12/18 02:23:19;;;;;;;5.47;4.90;;;6.50;99.90;;;;;;648733;222;26776;-79
2021/12/18 02:25:47;;;;;;;4.03;3.73;;;6.50;99.90;;;;;;650206;220;26483;-76
2021/12/18 02:28:18;;;;;;;7.07;4.43;;;6.40;99.90;;;;;;650125;221;26534;-78
2021/12/18 02:30:41;;;;;;;6.10;4.93;;;6.40;99.90;;;;;;649585;221;26796;-80
2021/12/18 02:33:09;;;;;;;5.00;4.50;;;6.30;99.90;;;;;;649768;221;26547;-79
2021/12/18 02:35:40;;;;;;;5.13;4.27;;;6.10;99.90;;;;;;649448;222;26507;-80
2021/12/18 02:38:09;;;;;;;7.23;4.57;;;6.60;99.90;;;;;;649145;221;26543;-80
2021/12/18 02:43:06;;;;;;;4.70;4.30;;;6.50;99.90;;;;;;649271;222;26536;-80
2021/12/18 02:45:34;;;;;;;4.20;3.80;;;6.40;99.90;;;;;;648699;222;26499;-80
2021/12/18 02:48:01;;;;;;;4.60;4.20;;;6.40;99.90;;;;;;648649;221;26514;-80
2021/12/18 02:50:29;;;;;;;5.27;4.33;;;6.70;99.90;;;;;;648640;222;26753;-80
2021/12/18 02:52:57;;;;;;;5.70;4.33;;;6.60;99.90;;;;;;648671;222;26535;-79
2021/12/18 02:55:24;;;;;;;4.40;4.00;;;6.60;99.90;;;;;;648658;222;26853;-79
2021/12/18 02:57:51;;;;;;;4.67;4.10;;;6.60;99.90;;;;;;648655;222;26527;-79
2021/12/18 03:00:20;;;;;;;4.30;3.90;;;6.50;99.90;;;;;;648606;222;26584;-79
2021/12/18 03:02:45;;;;;;;3.97;3.67;;;6.60;99.90;;;;;;648312;221;26768;-79
2021/12/18 03:05:20;;;;;;;4.57;4.20;;;6.40;99.90;;;;;;648381;221;26793;-79
2021/12/18 03:07:40;;;;;;;4.60;4.20;;;6.50;99.90;;;;;;647783;221;26526;-80
2021/12/18 03:21:41;;;;;;;5.53;5.03;;;6.50;99.90;;;;;;648375;222;26581;-80
2021/12/18 03:25:56;;;;;;;5.07;4.57;;;6.90;99.90;;;;;;648454;222;26551;-79
2021/12/18 03:28:19;;;;;;;5.17;4.37;;;6.80;99.90;;;;;;648145;221;26534;-79
2021/12/18 03:30:46;;;;;;;4.80;4.40;;;6.60;99.90;;;;;;648342;221;26546;-79
2021/12/18 03:33:14;;;;;;;5.27;4.70;;;6.50;99.90;;;;;;648341;221;26789;-80
2021/12/18 03:35:41;;;;;;;5.37;4.87;;;6.60;99.90;;;;;;648258;222;26557;-79
2021/12/18 03:38:10;;;;;;;5.60;5.10;;;6.40;99.90;;;;;;650093;219;26584;-80
2021/12/18 03:40:37;;;;;;;5.10;4.60;;;6.40;99.90;;;;;;649434;221;26541;-80
2021/12/18 03:43:04;;;;;;;5.63;5.13;;;6.20;99.90;;;;;;649276;221;26550;-80
2021/12/18 03:45:31;;;;;;;5.27;4.80;;;6.40;99.90;;;;;;649164;221;26806;-80
2021/12/18 03:47:58;;;;;;;5.90;4.70;;;6.90;99.90;;;;;;648978;217;26615;-81
2021/12/18 03:50:25;;;;;;;5.40;4.90;;;7.20;99.90;;;;;;648988;222;26575;-80
2021/12/18 03:52:55;;;;;;;5.87;5.33;;;6.70;99.90;;;;;;648969;222;26576;-79
2021/12/18 03:55:21;;;;;;;5.27;4.50;;;6.70;99.90;;;;;;648559;221;26578;-80
2021/12/18 03:57:48;;;;;;;5.40;4.90;;;6.30;99.90;;;;;;648558;222;26522;-80
2021/12/18 04:00:15;;;;;;;5.97;5.07;;;6.20;99.90;;;;;;648546;221;26817;-80
2021/12/18 04:02:42;;;;;;;5.40;4.90;;;6.10;99.90;;;;;;648643;221;26524;-79
2021/12/18 04:05:09;;;;;;;5.50;4.97;;;6.30;99.90;;;;;;648711;222;26541;-79
2021/12/18 04:07:43;;;;;;;5.90;5.30;;;6.50;99.90;;;;;;648657;222;26536;-80
2021/12/18 04:10:04;;;;;;;6.03;4.93;;;6.40;99.90;;;;;;648335;221;26777;-79
2021/12/18 04:12:31;;;;;;;5.63;5.07;;;6.40;99.90;;;;;;648554;222;26792;-79
2021/12/18 04:14:58;;;;;;;5.37;4.87;;;6.50;99.90;;;;;;648372;221;26570;-79
2021/12/18 04:17:25;;;;;;;7.17;5.80;;;6.80;99.90;;;;;;648338;222;26805;-79
2021/12/18 04:19:53;;;;;;;7.93;5.73;;;6.80;99.90;;;;;;648337;221;26560;-80
2021/12/18 04:22:22;;;;;;;8.47;5.57;;;6.40;99.90;;;;;;648399;221;26539;-79
2021/12/18 04:24:49;;;;;;;5.37;4.87;;;6.40;99.90;;;;;;648345;221;26822;-79
2021/12/18 04:27:16;;;;;;;6.50;5.37;;;6.50;99.90;;;;;;648526;217;26571;-79
2021/12/18 04:29:43;;;;;;;6.23;5.53;;;6.70;99.90;;;;;;648402;222;26900;-80
2021/12/18 04:32:11;;;;;;;7.37;6.37;;;6.80;99.90;;;;;;648417;222;26572;-79
2021/12/18 04:34:39;;;;;;;6.40;5.50;;;6.50;99.90;;;;;;648362;222;26570;-80
2021/12/18 04:37:06;;;;;;;6.10;5.50;;;6.50;99.90;;;;;;648340;217;26881;-79
2021/12/18 04:39:33;;;;;;;6.50;5.20;;;6.40;99.90;;;;;;648317;222;26578;-79
2021/12/18 04:42:00;;;;;;;6.30;5.70;;;6.30;99.90;;;;;;648311;217;26819;-80
2021/12/18 04:44:28;;;;;;;6.27;4.87;;;6.30;99.90;;;;;;648378;217;26562;-79
2021/12/18 04:46:55;;;;;;;5.73;5.13;;;6.10;99.90;;;;;;648350;222;26558;-79
2021/12/18 04:49:23;;;;;;;5.20;4.70;;;6.40;99.90;;;;;;649995;219;26591;-80
2021/12/18 04:51:50;;;;;;;6.23;5.53;;;6.50;99.90;;;;;;649661;221;26568;-80
2021/12/18 04:54:17;;;;;;;5.87;4.77;;;6.20;99.90;;;;;;649409;221;26549;-80
2021/12/18 04:56:44;;;;;;;4.80;4.37;;;6.10;99.90;;;;;;649267;221;26779;-80
2021/12/18 04:59:13;;;;;;;5.57;5.03;;;5.90;99.90;;;;;;648957;222;26572;-80
2021/12/18 05:01:41;;;;;;;4.57;4.17;;;5.90;99.90;;;;;;648880;221;26579;-80
2021/12/18 05:04:10;;;;;;;4.53;4.13;;;5.90;99.90;;;;;;648984;222;26555;-80
2021/12/18 05:06:37;;;;;;;4.67;4.27;;;6.10;99.90;;;;;;648770;222;26499;-80
2021/12/18 05:09:02;;;;;;;4.40;4.00;;;6.20;99.90;;;;;;648508;221;26825;-80
2021/12/18 05:11:29;;;;;;;4.97;4.57;;;6.20;99.90;;;;;;649108;222;26496;-84
2021/12/18 05:13:56;;;;;;;4.87;4.47;;;6.10;99.90;;;;;;649125;222;26495;-80
2021/12/18 05:16:24;;;;;;;5.17;4.67;;;6.30;99.90;;;;;;649121;221;26483;-81
2021/12/18 05:18:51;;;;;;;5.03;4.20;;;6.30;99.90;;;;;;648960;222;26746;-81
2021/12/18 05:21:19;;;;;;;4.73;4.33;;;6.40;99.90;;;;;;648680;222;26531;-81
2021/12/18 05:23:46;;;;;;;4.87;4.37;;;6.50;99.90;;;;;;648571;222;26798;-81
2021/12/18 05:26:14;;;;;;;4.67;4.27;;;6.10;99.90;;;;;;644505;221;26564;-81
2021/12/18 05:28:42;;;;;;;4.87;4.30;;;6.20;99.90;;;;;;637016;226;26565;-80
2021/12/18 05:31:09;;;;;;;5.13;4.70;;;6.20;99.90;;;;;;637067;226;26567;-81
2021/12/18 05:33:36;;;;;;;5.20;4.70;;;6.20;99.90;;;;;;637018;226;26573;-81
2021/12/18 05:36:13;;;;;;;5.63;4.20;;;6.30;99.90;;;;;;637101;226;26834;-81
2021/12/18 05:38:31;;;;;;;4.83;4.30;;;6.60;99.90;;;;;;636124;226;26601;-81
2021/12/18 05:40:58;;;;;;;4.70;4.30;;;6.60;99.90;;;;;;637024;226;27218;-81
2021/12/18 05:43:25;;;;;;;5.67;4.80;;;6.60;99.90;;;;;;637318;226;26588;-81
2021/12/18 05:45:52;;;;;;;4.90;4.47;;;6.70;99.90;;;;;;637422;226;26569;-81
2021/12/18 05:48:20;;;;;;;4.70;4.30;;;6.40;99.90;;;;;;637354;226;26565;-81
2021/12/18 05:50:47;;;;;;;4.73;4.33;;;6.30;99.90;;;;;;637367;226;26693;-81
2021/12/18 05:53:15;;;;;;;4.67;4.13;;;6.50;99.90;;;;;;637417;225;26531;-81
2021/12/18 05:55:42;;;;;;;3.90;3.60;;;6.50;99.90;;;;;;637407;226;26815;-81
2021/12/18 05:58:09;;;;;;;4.47;4.07;;;6.40;99.90;;;;;;637418;225;26564;-81
2021/12/18 06:00:39;;;;;;;4.50;3.97;;;6.20;99.90;;;;;;638826;223;26830;-82
2021/12/18 06:03:04;;;;;;;4.70;4.20;;;6.20;99.90;;;;;;638649;225;26492;-81
2021/12/18 06:05:31;;;;;;;4.93;3.97;;;6.20;99.90;;;;;;638425;225;26574;-81
2021/12/18 06:07:58;;;;;;;3.70;3.40;;;6.30;99.90;;;;;;638353;225;26569;-81
2021/12/18 06:10:28;;;;;;;4.13;3.80;;;6.30;99.90;;;;;;638057;225;26513;-81
2021/12/18 06:12:57;;;;;;;3.60;3.30;;;6.20;99.90;;;;;;637950;221;26488;-81
2021/12/18 06:15:22;;;;;;;3.73;3.43;;;6.20;99.90;;;;;;637815;225;27183;-81
2021/12/18 06:17:49;;;;;;;4.23;3.57;;;6.20;99.90;;;;;;637920;225;26523;-81
2021/12/18 06:20:16;;;;;;;4.43;3.53;;;6.30;99.90;;;;;;637706;225;26924;-81
2021/12/18 06:22:44;;;;;;;4.20;3.90;;;6.00;99.90;;;;;;637721;225;26581;-81
2021/12/18 06:25:12;;;;;;;4.63;4.23;;;6.00;99.90;;;;;;637712;225;26568;-81
2021/12/18 06:27:39;;;;;;;4.73;4.23;;;6.00;99.90;;;;;;637627;225;26593;-81
2021/12/18 06:30:07;;;;;;;6.00;4.87;;;6.10;99.90;;;;;;637611;225;26615;-81
2021/12/18 06:32:34;;;;;;;5.50;4.17;;;6.10;99.90;;;;;;637584;225;26582;-81
2021/12/18 06:35:01;;;;;;;4.70;4.30;;;6.30;99.90;;;;;;637450;225;27281;-81
2021/12/18 06:37:29;;;;;;;4.73;4.33;;;6.50;99.90;;;;;;637274;226;26573;-81
2021/12/18 06:39:57;;;;;;;5.37;4.87;;;6.50;99.90;;;;;;637235;226;26627;-81
2021/12/18 06:42:25;;;;;;;7.03;5.20;;;6.50;99.90;;;;;;637318;226;26574;-81
2021/12/18 06:44:52;;;;;;;5.33;4.80;;;6.50;99.90;;;;;;637369;226;26774;-82
2021/12/18 06:47:20;;;;;;;5.70;4.97;;;6.30;99.90;;;;;;637345;226;26765;-81
2021/12/18 06:49:47;;;;;;;5.13;4.60;;;6.40;99.90;;;;;;637363;226;26819;-81
2021/12/18 06:52:15;;;;;;;5.10;4.50;;;6.40;99.90;;;;;;637428;226;26564;-82
2021/12/18 06:54:43;;;;;;;4.27;3.90;;;6.40;99.90;;;;;;637436;226;26557;-81
2021/12/18 06:57:10;;;;;;;4.37;3.97;;;6.30;99.90;;;;;;637420;226;26563;-81
2021/12/18 06:59:37;;;;;;;5.13;4.40;;;6.10;99.90;;;;;;637445;226;26645;-78
2021/12/18 07:02:04;;;;;;;5.23;4.73;;;6.10;99.90;;;;;;637398;226;26816;-81
2021/12/18 07:04:31;;;;;;;6.13;4.80;;;6.00;99.90;;;;;;637418;226;26572;-82
2021/12/18 07:06:59;;;;;;;5.57;4.97;;;6.00;99.90;;;;;;637446;226;26519;-81
2021/12/18 07:09:27;;;;;;;5.37;4.60;;;6.30;99.90;;;;;;637405;226;26742;-81
2021/12/18 07:11:54;;;;;;;5.57;4.87;;;6.30;99.90;;;;;;638604;223;26624;-82
2021/12/18 07:14:21;;;;;;;5.00;4.50;;;6.30;99.90;;;;;;638835;225;26501;-81
2021/12/18 07:16:48;;;;;;;6.23;4.80;;;6.20;99.90;;;;;;638423;225;26791;-81
2021/12/18 07:19:16;;;;;;;5.97;4.93;;;6.50;99.90;;;;;;638363;225;26540;-81
2021/12/18 07:21:44;;;;;;;4.97;4.53;;;6.90;99.90;;;;;;638107;225;26496;-82
2021/12/18 07:24:11;;;;;;;6.97;5.10;;;6.90;99.90;;;;;;638161;225;26513;-82
2021/12/18 07:26:38;;;;;;;5.43;4.90;;;6.70;99.90;;;;;;638049;225;26509;-82
2021/12/18 07:29:06;;;;;;;6.13;4.97;;;6.50;99.90;;;;;;637951;225;26797;-81
2021/12/18 07:31:33;;;;;;;5.73;4.83;;;6.40;99.90;;;;;;637693;225;26561;-82
2021/12/18 07:34:00;;;;;;;6.90;5.53;;;6.20;99.90;;;;;;637735;225;26576;-82
2021/12/18 07:36:28;;;;;;;4.77;4.30;;;6.30;99.90;;;;;;637661;221;26582;-81
2021/12/18 07:38:55;;;;;;;4.43;4.00;;;6.30;99.90;;;;;;637714;225;26839;-81
2021/12/18 07:41:22;;;;;;;4.50;4.10;;;6.40;99.90;;;;;;637732;221;26761;-81
2021/12/18 07:43:50;;;;;;;4.50;4.10;;;6.40;99.90;;;;;;637672;225;26792;-81
2021/12/18 07:46:17;;;;;;;4.83;4.43;;;6.50;99.90;;;;;;637689;225;26581;-81
2021/12/18 07:48:45;;;;;;;5.47;4.97;;;6.40;99.90;;;;;;637504;226;26571;-81
2021/12/18 07:51:13;;;;;;;4.80;4.40;;;6.40;99.90;;;;;;637365;221;26562;-81
2021/12/18 07:53:40;;;;;;;4.17;3.87;;;6.40;99.90;;;;;;637315;222;26593;-82
2021/12/18 07:56:09;;;;;;;4.43;4.03;;;6.20;99.90;;;;;;637303;226;26799;-82
2021/12/18 07:58:34;;;;;;;4.40;4.00;;;6.30;99.90;;;;;;637201;226;26565;-81
2021/12/18 08:01:01;;;;;;;4.30;3.90;;;6.20;99.90;;;;;;637384;226;26570;-82
2021/12/18 08:03:29;;;;;;;4.40;4.03;;;6.00;99.90;;;;;;637398;221;26566;-82
2021/12/18 08:05:57;;;;;;;4.03;3.73;;;6.00;99.90;;;;;;637372;226;26812;-81
2021/12/18 08:08:24;;;;;;;3.97;3.67;;;6.10;99.90;;;;;;637302;221;26580;-81
2021/12/18 08:10:52;;;;;;;4.43;4.03;;;6.00;99.90;;;;;;637408;226;27268;-82
2021/12/18 08:13:19;;;;;;;6.93;4.80;;;6.00;99.90;;;;;;645372;221;26557;-81
2021/12/18 08:15:47;;;;;;;5.63;4.87;;;6.10;99.90;;;;;;648426;222;26534;-82
2021/12/18 08:18:14;;;;;;;7.23;5.80;;;6.10;99.90;;;;;;648374;222;26562;-82
2021/12/18 08:20:41;;;;;;;6.90;6.20;;;6.30;99.90;;;;;;648436;222;26526;-82
2021/12/18 08:23:08;;;;;;;8.60;6.97;;;6.50;99.90;;;;;;649412;219;26788;-82
2021/12/18 08:25:36;;;;;;;9.40;8.27;;;6.40;99.90;;;;;;649929;221;26570;-82
2021/12/18 08:28:04;;;;;;;12.27;8.63;;;6.30;99.90;;;;;;649438;217;26557;-82
2021/12/18 08:30:32;;;;;;;9.47;8.47;;;6.20;99.90;;;;;;649185;221;26583;-82
2021/12/18 08:33:00;;;;;;;12.73;8.37;;;6.20;99.90;;;;;;649009;221;26814;-81
2021/12/18 08:35:27;;;;;;;7.67;6.87;;;6.10;99.90;;;;;;648901;222;26564;-82
2021/12/18 08:37:54;;;;;;;5.50;5.00;;;6.10;99.90;;;;;;648932;222;26790;-83
2021/12/18 08:40:22;;;;;;;5.07;4.57;;;6.50;99.90;;;;;;648750;221;26595;-82
2021/12/18 08:42:50;;;;;;;4.50;4.03;;;6.40;99.90;;;;;;648442;217;26520;-82
2021/12/18 08:45:17;;;;;;;3.47;3.03;;;6.30;99.90;;;;;;648600;222;26761;-82
2021/12/18 08:47:44;;;;;;;2.73;2.40;;;6.40;99.90;;;;;;648711;222;26504;-82
2021/12/18 08:50:13;;;;;;;4.53;3.17;;;6.30;99.90;;;;;;648641;221;26777;-82
2021/12/18 08:52:39;;;;;;;2.87;2.67;;;6.40;99.90;;;;;;648552;221;26523;-82
2021/12/18 08:55:08;;;;;;;2.67;2.57;;;6.40;99.90;;;;;;648721;222;26519;-82
2021/12/18 08:57:35;;;;;;;3.10;2.87;;;6.40;99.90;;;;;;648814;222;26796;-82
2021/12/18 09:00:02;;;;;;;3.30;3.10;;;6.20;99.90;;;;;;639205;222;26559;-82
2021/12/18 09:02:29;;;;;;;3.20;2.93;;;6.20;99.90;;;;;;648277;221;27459;-83
2021/12/18 09:04:57;;;;;;;3.73;3.00;;;6.20;99.90;;;;;;648286;221;26577;-82
2021/12/18 09:07:27;;;;;;;3.30;3.03;;;6.30;99.90;;;;;;648444;222;26559;-82
2021/12/18 09:09:52;;;;;;;3.13;2.90;;;6.30;99.90;;;;;;648221;221;26589;-82
2021/12/18 09:12:19;;;;;;;3.50;3.20;;;6.30;99.90;;;;;;648346;222;26574;-82
2021/12/18 09:14:47;;;;;;;4.00;3.60;;;6.20;99.90;;;;;;648366;222;26872;-81
2021/12/18 09:17:15;;;;;;;3.63;3.33;;;6.20;99.90;;;;;;648332;222;26517;-81
2021/12/18 09:19:43;;;;;;;4.00;3.70;;;6.20;99.90;;;;;;648302;221;26586;-81
2021/12/18 09:22:10;;;;;;;4.13;3.77;;;6.20;99.90;;;;;;648230;222;27245;-81
2021/12/18 09:24:37;;;;;;;4.17;3.87;;;6.10;99.90;;;;;;648249;222;26845;-80
2021/12/18 09:27:04;;;;;;;6.20;4.40;;;6.30;99.90;;;;;;643071;222;26768;-81
2021/12/18 09:29:31;;;;;;;4.47;3.53;;;6.30;99.90;;;;;;637366;226;26574;-82
2021/12/18 09:31:59;;;;;;;4.07;3.77;;;6.60;99.90;;;;;;637291;225;26604;-81
2021/12/18 09:34:28;;;;;;;4.93;4.53;;;6.50;99.90;;;;;;638157;223;26591;-81
2021/12/18 09:36:54;;;;;;;4.77;4.37;;;6.90;99.90;;;;;;638885;225;26557;-81
2021/12/18 09:39:21;;;;;;;6.07;4.70;;;7.10;99.90;;;;;;638493;225;26838;-81
2021/12/18 09:41:48;;;;;;;6.07;4.83;;;7.10;99.90;;;;;;638370;225;26560;-82
2021/12/18 09:44:24;;;;;;;6.63;5.30;;;6.80;99.90;;;;;;642384;221;26594;-82
2021/12/18 09:46:51;;;;;;;5.10;4.70;;;6.70;99.90;;;;;;638041;225;26519;-82
2021/12/18 09:49:19;;;;;;;4.90;4.50;;;6.80;99.90;;;;;;638092;225;26528;-82
2021/12/18 09:51:46;;;;;;;5.77;4.67;;;6.90;99.90;;;;;;638148;225;26513;-80
2021/12/18 09:54:13;;;;;;;5.53;4.50;;;6.90;99.90;;;;;;637825;225;26750;-80
2021/12/18 09:56:42;;;;;;;5.27;4.03;;;6.70;99.90;;;;;;637790;225;26566;-80
2021/12/18 09:59:09;;;;;;;4.77;4.33;;;6.70;99.90;;;;;;637654;225;26577;-80
2021/12/18 10:01:36;;;;;;;4.83;4.30;;;6.80;99.90;;;;;;637690;225;27060;-82
2021/12/18 10:04:03;;;;;;;5.40;4.90;;;6.60;99.90;;;;;;637709;225;26540;-81
2021/12/18 10:06:39;;;;;;;5.10;4.60;;;6.40;99.90;;;;;;640661;221;26576;-81
2021/12/18 10:09:06;;;;;;;5.43;4.83;;;6.90;99.90;;;;;;648466;220;26567;-82
2021/12/18 10:11:33;;;;;;;5.33;4.83;;;6.90;99.90;;;;;;642303;216;26569;-81
2021/12/18 10:14:02;;;;;;;4.50;4.10;;;6.70;99.90;;;;;;637474;226;26550;-82
2021/12/18 10:16:28;;;;;;;5.23;4.60;;;6.70;99.90;;;;;;646667;222;26585;-81
2021/12/18 10:18:55;;;;;;;4.90;4.30;;;6.70;99.90;;;;;;648354;222;26792;-82
2021/12/18 10:21:23;;;;;;;4.87;4.37;;;7.00;99.90;;;;;;648374;218;26590;-82
2021/12/18 10:23:50;;;;;;;5.23;4.73;;;6.90;99.90;;;;;;646353;222;26774;-81
2021/12/18 10:26:29;;;;;;;4.70;4.30;;;7.00;99.90;;;;;;647324;222;26520;-82
2021/12/18 10:28:57;;;;;;;5.10;3.90;;;7.20;99.90;;;;;;647203;222;26573;-82
2021/12/18 10:31:43;;;;;;;4.20;3.87;;;6.90;99.90;;;;;;647289;222;26540;-82
2021/12/18 10:34:14;;;;;;;4.70;3.87;;;6.90;99.90;;;;;;647220;222;26545;-81
2021/12/18 10:36:41;;;;;;;4.00;3.60;;;7.00;99.90;;;;;;646952;222;26524;-81
2021/12/18 10:39:09;;;;;;;4.23;3.80;;;7.00;99.90;;;;;;647149;222;26823;-81
2021/12/18 10:41:37;;;;;;;4.23;3.83;;;6.90;99.90;;;;;;646421;222;26543;-80
2021/12/18 10:44:06;;;;;;;4.40;4.00;;;7.20;99.90;;;;;;647098;218;26548;-80
2021/12/18 10:46:32;;;;;;;4.37;3.97;;;7.20;99.90;;;;;;648370;220;26514;-81
2021/12/18 10:49:02;;;;;;;5.50;4.47;;;7.30;99.90;;;;;;648607;219;26510;-79
2021/12/18 10:51:30;;;;;;;5.63;4.33;;;7.30;99.90;;;;;;648108;222;26882;-79
2021/12/18 10:53:58;;;;;;;5.23;4.40;;;7.20;99.90;;;;;;643146;222;26575;-80
2021/12/18 10:56:33;;;;;;;5.07;4.53;;;7.20;99.90;;;;;;637811;225;26576;-80
2021/12/18 10:59:00;;;;;;;6.00;4.77;;;7.10;99.90;;;;;;637904;225;26532;-80
2021/12/18 11:01:29;;;;;;;4.30;3.90;;;7.10;99.90;;;;;;638069;225;26524;-80
2021/12/18 11:03:55;;;;;;;5.60;4.10;;;7.00;99.90;;;;;;637797;225;27186;-80
2021/12/18 11:06:23;;;;;;;4.47;4.07;;;7.10;99.90;;;;;;637767;225;26560;-80
2021/12/18 11:08:56;;;;;;;5.80;4.30;;;7.10;99.90;;;;;;637472;225;26512;-80
2021/12/18 11:13:55;;;;;;;4.53;3.80;;;7.50;99.90;;;;;;637771;225;26540;-80
2021/12/18 11:16:24;;;;;;;4.47;4.07;;;7.40;99.90;;;;;;637875;225;26570;-81
2021/12/18 11:18:50;;;;;;;4.27;3.87;;;7.40;99.90;;;;;;637674;225;26810;-81
2021/12/18 11:21:18;;;;;;;4.13;3.73;;;7.50;99.90;;;;;;637675;225;26794;-80
2021/12/18 11:23:48;;;;;;;5.27;4.30;;;7.70;99.90;;;;;;637376;226;26792;-81
2021/12/18 11:26:15;;;;;;;5.60;3.30;;;7.60;99.90;;;;;;637261;223;26791;-81
2021/12/18 11:28:43;;;;;;;4.37;3.40;;;7.50;99.90;;;;;;637309;226;26589;-81
2021/12/18 11:31:11;;;;;;;3.07;2.87;;;7.40;99.90;;;;;;637294;222;26633;-81
2021/12/18 11:33:38;;;;;;;3.93;3.20;;;7.40;99.90;;;;;;637407;226;27278;-81
2021/12/18 11:36:05;;;;;;;3.07;2.83;;;7.60;99.90;;;;;;637503;226;26577;-81
2021/12/18 11:38:32;;;;;;;4.07;3.40;;;7.80;99.90;;;;;;637500;226;27017;-80
2021/12/18 11:41:00;;;;;;;3.60;3.13;;;7.50;99.90;;;;;;637492;226;26589;-80
2021/12/18 11:43:31;;;;;;;3.50;3.20;;;7.60;99.90;;;;;;637500;226;26533;-80
2021/12/18 11:45:58;;;;;;;3.80;3.50;;;7.60;99.90;;;;;;639952;221;26872;-80
2021/12/18 11:48:26;;;;;;;3.00;2.80;;;7.40;99.90;;;;;;639820;222;26578;-80
2021/12/18 11:50:53;;;;;;;2.70;2.50;;;7.30;99.90;;;;;;638144;222;26800;-80
2021/12/18 11:53:21;;;;;;;3.00;2.80;;;7.20;99.90;;;;;;637368;226;26561;-80
2021/12/18 11:55:58;;;;;;;3.57;2.67;;;7.30;99.90;;;;;;636493;226;26550;-80
2021/12/18 11:58:26;;;;;;;3.33;3.03;;;7.30;99.90;;;;;;638686;223;26798;-80
2021/12/18 12:01:00;;;;;;;3.00;2.80;;;7.30;99.90;;;;;;639839;221;26542;-80
2021/12/18 12:03:27;;;;;;;2.83;2.63;;;7.30;99.90;;;;;;649164;221;26799;-80
2021/12/18 12:05:55;;;;;;;2.83;2.63;;;7.40;99.90;;;;;;649163;221;26589;-80
2021/12/18 12:08:42;;;;;;;2.57;2.37;;;7.40;99.90;;;;;;648950;221;26570;-81
2021/12/18 12:11:15;;;;;;;3.23;2.80;;;7.30;99.90;;;;;;648892;221;26597;-81
2021/12/18 12:13:54;;;;;;;2.03;1.87;;;7.70;99.90;;;;;;648972;222;26562;-79
2021/12/18 12:16:34;;;;;;;2.50;2.30;;;7.50;99.90;;;;;;648784;222;26527;-83
2021/12/18 12:19:05;;;;;;;3.87;2.57;;;7.50;99.90;;;;;;648423;217;27234;-83
2021/12/18 12:21:47;;;;;;;3.20;2.80;;;7.60;99.90;;;;;;648484;222;26760;-83
2021/12/18 12:24:15;;;;;;;2.70;2.50;;;7.80;99.90;;;;;;648444;221;26502;-84
2021/12/18 12:26:43;;;;;;;2.70;2.30;;;7.60;99.90;;;;;;648412;222;26511;-84
2021/12/18 12:29:10;;;;;;;2.93;2.17;;;7.50;99.90;;;;;;648455;221;26531;-83
2021/12/18 12:31:38;;;;;;;2.30;2.20;;;7.40;99.90;;;;;;648526;221;26544;-84
2021/12/18 12:34:17;;;;;;;2.40;2.30;;;7.50;99.90;;;;;;647412;222;26777;-84
2021/12/18 12:36:45;;;;;;;2.73;2.20;;;7.50;99.90;;;;;;650440;221;26782;-83
2021/12/18 12:39:11;;;;;;;2.60;2.40;;;7.50;99.90;;;;;;651001;221;26592;-83
2021/12/18 12:41:39;;;;;;;2.40;2.30;;;7.80;99.90;;;;;;651118;221;26565;-83
2021/12/18 12:44:16;;;;;;;2.20;2.10;;;8.10;99.90;;;;;;651177;221;26533;-83
2021/12/18 12:46:37;;;;;;;2.30;2.00;;;8.10;99.90;;;;;;648865;221;26594;-83
2021/12/18 12:49:04;;;;;;;2.13;2.03;;;8.10;99.90;;;;;;651231;221;26564;-83
2021/12/18 12:51:43;;;;;;;2.67;2.47;;;8.00;99.90;;;;;;651215;221;26790;-83
2021/12/18 12:54:11;;;;;;;1.93;1.80;;;8.10;99.90;;;;;;651244;221;27255;-83
2021/12/18 12:56:38;;;;;;;4.03;2.43;;;7.70;99.90;;;;;;649221;221;26545;-84
2021/12/18 12:59:12;;;;;;;2.40;2.10;;;7.80;99.90;;;;;;651231;221;26819;-84
2021/12/18 13:01:40;;;;;;;2.20;2.10;;;8.30;99.90;;;;;;650547;221;26561;-83
2021/12/18 13:04:08;;;;;;;2.10;2.00;;;8.60;99.90;;;;;;651245;216;26509;-83
2021/12/18 13:06:36;;;;;;;2.27;2.17;;;8.60;99.90;;;;;;650762;221;26775;-83
2021/12/18 13:09:03;;;;;;;2.23;2.00;;;8.30;99.90;;;;;;651876;218;26527;-84
2021/12/18 13:11:33;;;;;;;2.10;2.00;;;8.30;99.90;;;;;;652846;220;26809;-84
2021/12/18 13:13:58;;;;;;;2.33;2.13;;;8.20;99.90;;;;;;652577;220;26525;-83
2021/12/18 13:16:26;;;;;;;2.00;1.90;;;8.00;99.90;;;;;;652641;219;26482;-83
2021/12/18 13:18:53;;;;;;;4.80;2.43;;;8.00;99.90;;;;;;652073;220;26810;-84
2021/12/18 13:21:21;;;;;;;2.27;2.17;;;8.10;99.90;;;;;;651881;221;26606;-84
2021/12/18 13:23:51;;;;;;;3.30;3.10;;;8.10;99.90;;;;;;651868;221;26543;-83
2021/12/18 13:26:19;;;;;;;2.20;2.00;;;8.20;99.90;;;;;;651814;221;26596;-84
2021/12/18 13:29:02;;;;;;;2.50;2.30;;;8.20;99.90;;;;;;651549;221;26517;-83
2021/12/18 13:31:30;;;;;;;2.20;2.10;;;8.10;99.90;;;;;;649955;221;26534;-83
2021/12/18 13:34:06;;;;;;;2.33;2.13;;;8.10;99.90;;;;;;651606;221;26526;-84
2021/12/18 13:36:37;;;;;;;2.23;2.07;;;8.10;99.90;;;;;;651591;221;26767;-83
2021/12/18 13:39:08;;;;;;;2.57;2.23;;;8.10;99.90;;;;;;651553;221;26564;-84
2021/12/18 13:41:35;;;;;;;2.30;2.20;;;7.70;99.90;;;;;;651708;221;27151;-84
2021/12/18 13:44:03;;;;;;;2.40;2.23;;;7.70;99.90;;;;;;651687;221;26519;-84